createdAt,value
2023-04-17T00:01:35.250Z,57.38
2023-04-17T00:04:20.217Z,57.28
2023-04-17T00:07:04.954Z,57.24
2023-04-17T00:09:49.823Z,57.63
2023-04-17T00:12:34.592Z,57.91
2023-04-17T00:15:19.517Z,57.83
2023-04-17T00:18:04.543Z,58.21
2023-04-17T00:20:49.613Z,58.24
2023-04-17T00:23:34.415Z,58.41
2023-04-17T00:26:19.206Z,58.22
2023-04-17T00:29:03.992Z,58.29
2023-04-17T00:31:49.153Z,58.45
2023-04-17T00:34:33.999Z,58.75
2023-04-17T00:37:18.975Z,58.77
2023-04-17T00:40:03.864Z,58.78
2023-04-17T00:42:48.664Z,58.79
2023-04-17T00:45:33.804Z,58.80
2023-04-17T00:51:07.009Z,58.83
2023-04-17T00:53:52.335Z,59.30
2023-04-17T00:56:37.324Z,59.51
2023-04-17T00:59:22.532Z,59.58
2023-04-17T01:02:07.612Z,59.52
2023-04-17T01:04:52.597Z,60.04
2023-04-17T01:07:37.357Z,60.12
2023-04-17T01:10:22.428Z,61.18
2023-04-17T01:13:07.338Z,60.57
2023-04-17T01:15:52.151Z,59.76
2023-04-17T01:18:37.082Z,59.70
2023-04-17T01:21:21.966Z,59.59
2023-04-17T01:24:07.013Z,59.23
2023-04-17T01:26:51.809Z,59.55
2023-04-17T01:29:36.894Z,59.48
2023-04-17T01:32:21.914Z,59.40
2023-04-17T01:35:06.804Z,59.53
2023-04-17T01:37:51.829Z,59.33
2023-04-17T01:40:36.720Z,59.51
2023-04-17T01:43:21.759Z,59.79
2023-04-17T01:46:06.917Z,59.31
2023-04-17T01:48:52.203Z,59.43
2023-04-17T01:51:37.081Z,59.33
2023-04-17T01:54:22.000Z,59.11
2023-04-17T01:57:07.059Z,58.90
2023-04-17T01:59:52.031Z,58.45
2023-04-17T02:02:37.090Z,58.59
2023-04-17T02:05:21.832Z,58.47
2023-04-17T02:08:06.734Z,58.77
2023-04-17T02:10:51.541Z,58.45
2023-04-17T02:13:36.380Z,58.75
2023-04-17T02:16:21.373Z,58.88
2023-04-17T02:19:06.286Z,59.05
2023-04-17T02:21:51.172Z,58.89
2023-04-17T02:24:36.189Z,59.19
2023-04-17T02:27:21.132Z,59.16
2023-04-17T02:30:06.133Z,58.82
2023-04-17T02:32:51.268Z,58.41
2023-04-17T02:35:36.093Z,58.32
2023-04-17T02:38:21.206Z,58.78
2023-04-17T02:41:06.078Z,58.81
2023-04-17T02:43:51.145Z,58.92
2023-04-17T02:46:36.229Z,58.65
2023-04-17T02:49:21.177Z,58.74
2023-04-17T02:52:06.192Z,58.32
2023-04-17T02:54:51.057Z,58.06
2023-04-17T02:57:36.029Z,57.95
2023-04-17T03:00:20.998Z,57.91
2023-04-17T03:03:06.203Z,57.54
2023-04-17T03:05:51.406Z,58.22
2023-04-17T03:08:36.291Z,58.57
2023-04-17T03:11:21.259Z,58.15
2023-04-17T03:14:06.163Z,58.14
2023-04-17T03:16:51.403Z,57.94
2023-04-17T03:19:36.146Z,57.41
2023-04-17T03:22:21.085Z,57.47
2023-04-17T03:25:05.981Z,57.68
2023-04-17T03:27:51.015Z,57.85
2023-04-17T03:30:36.008Z,57.47
2023-04-17T03:33:21.039Z,57.68
2023-04-17T03:36:06.188Z,57.67
2023-04-17T03:38:51.092Z,57.79
2023-04-17T03:41:36.242Z,57.54
2023-04-17T03:44:20.951Z,57.12
2023-04-17T03:47:06.047Z,57.10
2023-04-17T03:49:50.886Z,56.98
2023-04-17T03:52:35.768Z,57.42
2023-04-17T03:55:20.780Z,57.59
2023-04-17T03:58:05.734Z,57.35
2023-04-17T04:00:50.804Z,57.48
2023-04-17T04:03:35.901Z,57.71
2023-04-17T04:06:21.144Z,58.04
2023-04-17T04:09:06.054Z,58.10
2023-04-17T04:11:50.886Z,57.90
2023-04-17T04:14:35.826Z,57.69
2023-04-17T04:17:20.877Z,57.93
2023-04-17T04:20:05.703Z,57.73
2023-04-17T04:22:50.662Z,57.61
2023-04-17T04:25:35.747Z,57.45
2023-04-17T04:28:20.762Z,57.69
2023-04-17T04:31:05.659Z,57.94
2023-04-17T04:33:50.751Z,57.95
2023-04-17T04:36:35.799Z,58.00
2023-04-17T04:39:20.870Z,57.80
2023-04-17T04:42:05.787Z,58.04
2023-04-17T04:44:50.593Z,57.84
2023-04-17T04:47:35.542Z,57.74
2023-04-17T04:50:20.619Z,57.94
2023-04-17T04:53:05.579Z,58.23
2023-04-17T04:55:50.640Z,57.77
2023-04-17T04:58:35.540Z,57.96
2023-04-17T05:01:20.574Z,58.44
2023-04-17T05:04:05.675Z,58.27
2023-04-17T05:06:50.508Z,58.02
2023-04-17T05:09:35.646Z,57.86
2023-04-17T05:12:20.445Z,57.46
2023-04-17T05:15:05.548Z,57.68
2023-04-17T05:17:50.644Z,57.60
2023-04-17T05:20:36.390Z,57.89
2023-04-17T05:23:21.301Z,57.61
2023-04-17T05:26:06.261Z,57.35
2023-04-17T05:28:51.306Z,57.27
2023-04-17T05:31:36.307Z,57.07
2023-04-17T05:34:21.850Z,57.08
2023-04-17T05:37:06.614Z,57.28
2023-04-17T05:39:51.628Z,57.26
2023-04-17T05:42:36.576Z,57.26
2023-04-17T05:45:23.451Z,56.58
2023-04-17T05:48:09.882Z,56.38
2023-04-17T05:50:54.675Z,56.35
2023-04-17T05:53:39.633Z,56.26
2023-04-17T05:56:24.580Z,56.00
2023-04-17T05:59:09.474Z,55.58
2023-04-17T06:01:54.508Z,57.05
2023-04-17T06:04:39.578Z,57.02
2023-04-17T06:07:24.855Z,56.69
2023-04-17T06:10:09.723Z,55.70
2023-04-17T06:12:54.874Z,56.00
2023-04-17T06:15:39.688Z,56.34
2023-04-17T06:18:24.811Z,57.01
2023-04-17T06:21:09.828Z,55.89
2023-04-17T06:23:54.996Z,56.41
2023-04-17T06:26:39.833Z,55.88
2023-04-17T06:29:24.823Z,55.85
2023-04-17T06:32:09.916Z,54.52
2023-04-17T06:34:59.448Z,54.98
2023-04-17T06:37:44.817Z,56.61
2023-04-17T06:40:29.767Z,55.37
2023-04-17T06:43:14.543Z,54.43
2023-04-17T06:45:59.633Z,55.18
2023-04-17T06:48:44.813Z,54.39
2023-04-17T06:51:29.640Z,55.80
2023-04-17T06:54:14.808Z,55.07
2023-04-17T06:56:59.779Z,55.03
2023-04-17T06:59:44.782Z,54.40
2023-04-17T07:02:29.797Z,53.07
2023-04-17T07:05:14.831Z,54.32
2023-04-17T07:07:59.831Z,55.08
2023-04-17T07:10:44.928Z,55.77
2023-04-17T07:13:29.920Z,54.27
2023-04-17T07:16:14.817Z,53.14
2023-04-17T07:18:59.800Z,54.49
2023-04-17T07:21:44.729Z,53.32
2023-04-17T07:24:29.750Z,51.40
2023-04-17T07:27:14.758Z,50.28
2023-04-17T07:29:59.624Z,51.95
2023-04-17T07:32:44.644Z,51.55
2023-04-17T07:35:29.723Z,51.35
2023-04-17T07:38:14.877Z,52.95
2023-04-17T07:40:59.708Z,49.52
2023-04-17T07:43:44.822Z,49.23
2023-04-17T07:46:29.824Z,48.18
2023-04-17T07:49:15.232Z,48.33
2023-04-17T07:52:00.491Z,48.47
2023-04-17T07:54:45.356Z,47.44
2023-04-17T07:57:30.467Z,48.36
2023-04-17T08:00:15.217Z,50.31
2023-04-17T08:03:00.433Z,48.35
2023-04-17T08:05:45.189Z,50.34
2023-04-17T08:08:30.389Z,47.43
2023-04-17T08:11:15.224Z,48.34
2023-04-17T08:14:00.321Z,47.56
2023-04-17T08:16:45.448Z,47.40
2023-04-17T08:19:30.245Z,46.49
2023-04-17T08:22:15.326Z,47.43
2023-04-17T08:25:00.293Z,47.48
2023-04-17T08:27:45.377Z,46.22
2023-04-17T08:30:30.307Z,46.85
2023-04-17T08:33:15.350Z,45.98
2023-04-17T08:36:01.526Z,45.64
2023-04-17T08:38:48.191Z,45.66
2023-04-17T08:41:33.393Z,44.93
2023-04-17T08:44:19.560Z,45.87
2023-04-17T08:47:04.288Z,43.23
2023-04-17T08:49:49.129Z,45.11
2023-04-17T08:52:34.342Z,42.27
2023-04-17T08:55:19.103Z,43.00
2023-04-17T08:58:04.144Z,42.40
2023-04-17T09:00:49.397Z,42.06
2023-04-17T09:03:34.279Z,42.03
2023-04-17T09:06:19.612Z,41.48
2023-04-17T09:09:04.314Z,40.23
2023-04-17T09:11:49.172Z,41.58
2023-04-17T09:14:33.797Z,41.63
2023-04-17T09:17:18.812Z,40.53
2023-04-17T09:20:03.491Z,40.65
2023-04-17T09:22:48.653Z,40.63
2023-04-17T09:25:33.511Z,39.18
2023-04-17T09:28:18.376Z,38.91
2023-04-17T09:31:03.080Z,40.41
2023-04-17T09:33:47.980Z,42.26
2023-04-17T09:36:32.944Z,42.33
2023-04-17T09:39:17.911Z,39.95
2023-04-17T09:42:03.614Z,42.69
2023-04-17T09:44:49.077Z,42.21
2023-04-17T09:47:35.452Z,40.69
2023-04-17T09:50:20.853Z,41.28
2023-04-17T09:53:05.955Z,39.04
2023-04-17T09:55:51.074Z,39.27
2023-04-17T09:58:35.878Z,42.13
2023-04-17T10:01:20.977Z,40.63
2023-04-17T10:04:06.644Z,40.27
2023-04-17T10:06:51.721Z,40.34
2023-04-17T10:09:36.338Z,39.02
2023-04-17T10:12:21.189Z,38.57
2023-04-17T10:15:06.224Z,39.16
2023-04-17T10:17:51.118Z,38.76
2023-04-17T10:20:36.355Z,39.29
2023-04-17T10:23:21.120Z,40.58
2023-04-17T10:26:05.729Z,37.67
2023-04-17T10:28:50.740Z,35.67
2023-04-17T10:31:35.629Z,38.01
2023-04-17T10:34:20.498Z,37.03
2023-04-17T10:37:05.319Z,36.96
2023-04-17T10:39:50.328Z,37.75
2023-04-17T10:42:35.432Z,37.09
2023-04-17T10:45:20.304Z,36.90
2023-04-17T10:48:05.031Z,36.54
2023-04-17T10:50:49.917Z,38.38
2023-04-17T10:53:34.932Z,38.11
2023-04-17T10:56:19.602Z,37.73
2023-04-17T10:59:04.550Z,37.86
2023-04-17T11:01:49.496Z,36.83
2023-04-17T11:04:34.818Z,36.54
2023-04-17T11:07:19.963Z,37.82
2023-04-17T11:10:05.069Z,36.76
2023-04-17T11:12:49.724Z,35.97
2023-04-17T11:15:34.711Z,36.10
2023-04-17T11:18:19.589Z,35.91
2023-04-17T11:21:04.299Z,38.38
2023-04-17T11:23:49.408Z,35.39
2023-04-17T11:26:34.042Z,36.72
2023-04-17T11:29:19.128Z,34.74
2023-04-17T11:32:03.996Z,35.39
2023-04-17T11:34:49.183Z,36.34
2023-04-17T11:37:34.227Z,38.77
2023-04-17T11:40:19.156Z,35.60
2023-04-17T11:43:04.099Z,34.37
2023-04-17T11:45:48.978Z,34.44
2023-04-17T11:48:33.995Z,34.50
2023-04-17T11:51:18.852Z,36.52
2023-04-17T11:54:03.759Z,33.48
2023-04-17T11:56:48.685Z,33.86
2023-04-17T11:59:33.669Z,33.84
2023-04-17T12:02:18.840Z,33.77
2023-04-17T12:05:03.664Z,34.97
2023-04-17T12:07:48.687Z,36.01
2023-04-17T12:10:33.622Z,32.83
2023-04-17T12:13:18.537Z,32.04
2023-04-17T12:16:03.591Z,30.53
2023-04-17T12:18:48.624Z,32.26
2023-04-17T12:21:33.617Z,32.01
2023-04-17T12:24:18.632Z,32.66
2023-04-17T12:27:03.627Z,32.14
2023-04-17T12:29:48.449Z,31.79
2023-04-17T12:32:33.430Z,32.84
2023-04-17T12:35:18.496Z,32.76
2023-04-17T12:38:03.297Z,32.95
2023-04-17T12:40:48.082Z,32.36
2023-04-17T12:43:33.146Z,32.32
2023-04-17T12:46:18.309Z,34.12
2023-04-17T12:49:03.096Z,32.53
2023-04-17T12:51:48.227Z,32.87
2023-04-17T12:54:33.263Z,33.60
2023-04-17T12:57:18.367Z,32.19
2023-04-17T13:00:02.967Z,32.57
2023-04-17T13:02:47.997Z,32.10
2023-04-17T13:05:33.150Z,32.74
2023-04-17T13:08:18.198Z,31.30
2023-04-17T13:11:02.918Z,33.29
2023-04-17T13:13:49.178Z,30.91
2023-04-17T13:16:34.237Z,30.81
2023-04-17T13:19:19.123Z,31.99
2023-04-17T13:22:03.747Z,31.05
2023-04-17T13:24:48.645Z,30.85
2023-04-17T13:27:33.363Z,30.91
2023-04-17T13:30:17.926Z,31.32
2023-04-17T13:33:03.047Z,31.53
2023-04-17T13:35:54.699Z,31.32
2023-04-17T13:38:44.849Z,31.06
2023-04-17T13:41:30.045Z,31.84
2023-04-17T13:44:14.769Z,30.50
2023-04-17T13:46:59.849Z,30.80
2023-04-17T13:49:44.794Z,30.80
2023-04-17T13:52:29.842Z,31.34
2023-04-17T13:55:14.857Z,31.42
2023-04-17T13:57:59.652Z,31.44
2023-04-17T14:00:44.621Z,33.26
2023-04-17T14:03:29.683Z,32.68
2023-04-17T14:06:14.426Z,33.53
2023-04-17T14:08:59.332Z,33.52
2023-04-17T14:11:44.497Z,32.56
2023-04-17T14:14:29.184Z,32.87
2023-04-17T14:17:14.343Z,32.71
2023-04-17T14:19:59.132Z,32.24
2023-04-17T14:22:44.120Z,32.18
2023-04-17T14:25:28.900Z,32.13
2023-04-17T14:28:13.857Z,32.28
2023-04-17T14:30:58.863Z,32.57
2023-04-17T14:33:43.843Z,33.08
2023-04-17T14:36:28.800Z,33.03
2023-04-17T14:39:14.003Z,33.09
2023-04-17T14:42:01.228Z,33.34
2023-04-17T14:44:46.825Z,33.95
2023-04-17T14:47:31.972Z,33.71
2023-04-17T14:50:16.909Z,33.92
2023-04-17T14:53:01.748Z,33.95
2023-04-17T14:55:46.792Z,33.71
2023-04-17T14:58:31.661Z,34.34
2023-04-17T15:01:16.736Z,33.87
2023-04-17T15:04:01.639Z,34.41
2023-04-17T15:06:46.420Z,34.59
2023-04-17T15:09:31.411Z,34.65
2023-04-17T15:12:16.359Z,34.94
2023-04-17T15:15:01.388Z,35.19
2023-04-17T15:17:46.318Z,35.55
2023-04-17T15:20:31.225Z,36.08
2023-04-17T15:23:16.237Z,35.80
2023-04-17T15:26:01.429Z,34.87
2023-04-17T15:28:46.341Z,35.07
2023-04-17T15:31:31.479Z,35.19
2023-04-17T15:34:16.453Z,34.92
2023-04-17T15:37:01.367Z,34.36
2023-04-17T15:39:46.321Z,35.21
2023-04-17T15:42:31.240Z,35.42
2023-04-17T15:45:16.142Z,35.24
2023-04-17T15:48:01.179Z,36.07
2023-04-17T15:50:46.117Z,36.16
2023-04-17T15:53:31.228Z,35.76
2023-04-17T15:56:16.123Z,35.26
2023-04-17T15:59:01.066Z,35.38
2023-04-17T16:01:46.025Z,36.16
2023-04-17T16:04:31.230Z,36.71
2023-04-17T16:07:15.875Z,36.65
2023-04-17T16:10:00.795Z,36.46
2023-04-17T16:12:45.710Z,36.89
2023-04-17T16:15:33.009Z,36.98
2023-04-17T16:18:17.949Z,37.22
2023-04-17T16:21:02.816Z,37.82
2023-04-17T16:23:48.091Z,37.84
2023-04-17T16:26:33.085Z,37.96
2023-04-17T16:29:18.091Z,37.85
2023-04-17T16:32:03.197Z,37.64
2023-04-17T16:34:47.967Z,37.26
2023-04-17T16:37:33.031Z,36.87
2023-04-17T16:40:17.948Z,37.18
2023-04-17T16:43:02.883Z,37.79
2023-04-17T16:45:47.907Z,37.24
2023-04-17T16:48:32.987Z,37.33
2023-04-17T16:51:17.735Z,37.45
2023-04-17T16:54:02.705Z,36.47
2023-04-17T16:56:47.623Z,36.82
2023-04-17T16:59:32.497Z,36.98
2023-04-17T17:02:17.674Z,37.14
2023-04-17T17:05:02.551Z,37.59
2023-04-17T17:07:47.551Z,38.01
2023-04-17T17:10:32.400Z,38.59
2023-04-17T17:13:17.271Z,38.64
2023-04-17T17:16:02.117Z,38.44
2023-04-17T17:18:46.879Z,38.79
2023-04-17T17:21:31.778Z,39.38
2023-04-17T17:24:16.553Z,39.49
2023-04-17T17:27:01.691Z,39.03
2023-04-17T17:29:46.445Z,39.02
2023-04-17T17:32:31.341Z,38.58
2023-04-17T17:35:16.260Z,38.81
2023-04-17T17:38:01.234Z,38.65
2023-04-17T17:40:46.003Z,38.24
2023-04-17T17:43:30.903Z,38.59
2023-04-17T17:46:15.928Z,38.50
2023-04-17T17:49:00.750Z,38.69
2023-04-17T17:51:45.850Z,38.46
2023-04-17T17:54:30.873Z,38.45
2023-04-17T17:57:15.822Z,38.93
2023-04-17T18:00:00.873Z,38.74
2023-04-17T18:02:46.079Z,39.14
2023-04-17T18:05:31.572Z,38.53
2023-04-17T18:08:16.399Z,38.90
2023-04-17T18:11:01.348Z,38.61
2023-04-17T18:13:46.209Z,38.19
2023-04-17T18:16:31.284Z,38.90
2023-04-17T18:19:16.222Z,38.14
2023-04-17T18:22:01.082Z,38.71
2023-04-17T18:24:46.112Z,38.72
2023-04-17T18:27:31.104Z,39.19
2023-04-17T18:30:16.084Z,39.45
2023-04-17T18:33:01.175Z,38.99
2023-04-17T18:35:48.330Z,39.10
2023-04-17T18:38:33.636Z,39.39
2023-04-17T18:41:18.695Z,38.86
2023-04-17T18:44:03.715Z,40.08
2023-04-17T18:46:48.753Z,40.40
2023-04-17T18:49:33.693Z,40.03
2023-04-17T18:52:18.606Z,40.07
2023-04-17T18:55:03.717Z,40.49
2023-04-17T18:57:48.714Z,40.28
2023-04-17T19:00:33.814Z,39.96
2023-04-17T19:03:18.805Z,40.29
2023-04-17T19:06:03.851Z,40.18
2023-04-17T19:08:48.726Z,40.14
2023-04-17T19:11:33.682Z,40.66
2023-04-17T19:14:18.816Z,40.73
2023-04-17T19:17:03.560Z,40.89
2023-04-17T19:19:48.749Z,41.33
2023-04-17T19:22:33.657Z,41.39
2023-04-17T19:25:18.522Z,41.39
2023-04-17T19:28:03.333Z,41.05
2023-04-17T19:30:51.367Z,42.01
2023-04-17T19:33:36.192Z,41.69
2023-04-17T19:36:21.102Z,41.68
2023-04-17T19:39:06.091Z,42.19
2023-04-17T19:41:51.075Z,42.35
2023-04-17T19:44:35.976Z,42.46
2023-04-17T19:47:20.834Z,42.13
2023-04-17T19:50:05.865Z,42.17
2023-04-17T19:52:51.064Z,41.88
2023-04-17T19:55:35.964Z,41.96
2023-04-17T19:58:21.079Z,42.56
2023-04-17T20:01:06.131Z,42.64
2023-04-17T20:03:51.326Z,42.98
2023-04-17T20:06:35.916Z,42.91
2023-04-17T20:09:21.114Z,42.69
2023-04-17T20:12:05.900Z,42.70
2023-04-17T20:14:51.719Z,42.92
2023-04-17T20:17:36.881Z,42.71
2023-04-17T20:20:21.883Z,43.28
2023-04-17T20:23:06.816Z,43.11
2023-04-17T20:25:51.613Z,43.53
2023-04-17T20:28:36.640Z,43.46
2023-04-17T20:31:21.610Z,44.07
2023-04-17T20:34:06.376Z,43.44
2023-04-17T20:36:51.309Z,43.57
2023-04-17T20:39:36.154Z,43.99
2023-04-17T20:42:20.966Z,43.96
2023-04-17T20:45:05.921Z,43.88
2023-04-17T20:50:38.758Z,44.50
2023-04-17T20:53:23.674Z,44.33
2023-04-17T20:56:08.760Z,44.56
2023-04-17T20:58:53.608Z,44.44
2023-04-17T21:01:38.658Z,44.41
2023-04-17T21:04:23.541Z,44.45
2023-04-17T21:07:08.469Z,44.59
2023-04-17T21:09:53.437Z,44.73
2023-04-17T21:12:38.406Z,44.94
2023-04-17T21:15:23.396Z,44.89
2023-04-17T21:18:08.177Z,45.33
2023-04-17T21:20:53.223Z,44.90
2023-04-17T21:23:38.257Z,45.28
2023-04-17T21:26:23.327Z,45.17
2023-04-17T21:29:08.187Z,45.37
2023-04-17T21:31:53.135Z,45.59
2023-04-17T21:34:37.926Z,45.54
2023-04-17T21:37:22.887Z,45.46
2023-04-17T21:40:07.862Z,45.40
2023-04-17T21:42:52.731Z,45.87
2023-04-17T21:45:37.891Z,46.09
2023-04-17T21:48:22.667Z,46.08
2023-04-17T21:51:07.584Z,46.03
2023-04-17T21:53:52.466Z,46.03
2023-04-17T21:56:37.552Z,45.82
2023-04-17T21:59:22.335Z,46.09
2023-04-17T22:02:07.429Z,46.02
2023-04-17T22:04:52.633Z,46.39
2023-04-17T22:07:44.023Z,46.34
2023-04-17T22:10:36.313Z,46.13
2023-04-17T22:13:21.327Z,46.35
2023-04-17T22:16:06.287Z,46.63
2023-04-17T22:18:51.326Z,46.63
2023-04-17T22:21:36.353Z,47.01
2023-04-17T22:24:21.297Z,47.03
2023-04-17T22:27:06.172Z,47.59
2023-04-17T22:29:51.173Z,47.15
2023-04-17T22:32:36.138Z,47.49
2023-04-17T22:35:21.035Z,47.76
2023-04-17T22:38:05.923Z,48.26
2023-04-17T22:40:50.946Z,48.09
2023-04-17T22:43:35.838Z,48.31
2023-04-17T22:46:20.740Z,48.45
2023-04-17T22:49:05.560Z,48.77
2023-04-17T22:51:50.372Z,48.56
2023-04-17T22:54:35.189Z,48.66
2023-04-17T22:57:20.043Z,48.50
2023-04-17T23:00:05.035Z,48.53
2023-04-17T23:02:50.005Z,48.32
2023-04-17T23:05:34.973Z,48.24
2023-04-17T23:08:19.958Z,48.35
2023-04-17T23:11:04.985Z,48.00
2023-04-17T23:13:49.870Z,48.27
2023-04-17T23:16:34.920Z,48.14
2023-04-17T23:19:19.769Z,48.24
2023-04-17T23:22:04.729Z,48.21
2023-04-17T23:24:49.644Z,48.28
2023-04-17T23:27:34.507Z,48.45
2023-04-17T23:30:19.580Z,48.32
2023-04-17T23:33:04.414Z,48.17
2023-04-17T23:35:49.296Z,48.60
2023-04-17T23:38:34.152Z,48.25
2023-04-17T23:41:19.220Z,48.56
2023-04-17T23:44:04.045Z,48.64
2023-04-17T23:46:49.038Z,48.64
2023-04-17T23:49:33.907Z,48.71
2023-04-17T23:52:18.857Z,48.38
2023-04-17T23:55:03.703Z,48.83
2023-04-17T23:57:48.552Z,48.62
